createdAt,value
2017-05-14T00:01:55.816Z,8.80
2017-05-14T00:04:24.100Z,7.96
2017-05-14T00:06:52.443Z,9.14
2017-05-14T00:09:21.076Z,10.36
2017-05-14T00:11:49.369Z,13.66
2017-05-14T00:14:17.691Z,8.82
2017-05-14T00:16:46.259Z,8.22
2017-05-14T00:19:14.767Z,7.60
2017-05-14T00:21:43.253Z,10.04
2017-05-14T00:24:11.949Z,8.66
2017-05-14T00:26:40.243Z,8.06
2017-05-14T00:29:08.546Z,8.22
2017-05-14T00:31:37.169Z,6.92
2017-05-14T00:34:05.482Z,8.06
2017-05-14T00:36:33.774Z,7.82
2017-05-14T00:39:02.410Z,9.34
2017-05-14T00:41:30.705Z,10.86
2017-05-14T00:43:59.042Z,7.10
2017-05-14T00:46:27.561Z,8.10
2017-05-14T00:48:55.851Z,7.64
2017-05-14T00:51:24.412Z,7.00
2017-05-14T00:53:53.097Z,11.80
2017-05-14T00:56:21.555Z,6.72
2017-05-14T00:58:49.863Z,7.08
2017-05-14T01:01:18.534Z,10.94
2017-05-14T01:03:46.816Z,6.06
2017-05-14T01:06:15.122Z,5.72
2017-05-14T01:08:43.768Z,6.02
2017-05-14T01:11:12.130Z,8.36
2017-05-14T01:13:40.617Z,9.04
2017-05-14T01:16:09.311Z,7.50
2017-05-14T01:18:37.609Z,7.04
2017-05-14T01:21:06.082Z,6.86
2017-05-14T01:23:34.702Z,7.72
2017-05-14T01:26:03.139Z,8.90
2017-05-14T01:28:31.438Z,8.30
2017-05-14T01:31:00.094Z,6.20
2017-05-14T01:33:28.465Z,4.90
2017-05-14T01:35:56.744Z,4.90
2017-05-14T01:38:25.335Z,5.86
2017-05-14T01:40:53.819Z,6.10
2017-05-14T01:43:22.299Z,4.50
2017-05-14T01:45:50.983Z,5.60
2017-05-14T01:48:19.345Z,6.80
2017-05-14T01:50:47.942Z,7.52
2017-05-14T01:53:16.632Z,4.50
2017-05-14T01:55:44.992Z,6.80
2017-05-14T01:58:13.391Z,5.88
2017-05-14T02:00:41.994Z,5.06
2017-05-14T02:03:10.352Z,5.70
2017-05-14T02:05:38.658Z,4.56
2017-05-14T02:08:07.308Z,5.36
2017-05-14T02:10:35.575Z,4.82
2017-05-14T02:13:03.937Z,6.54
2017-05-14T02:15:32.478Z,8.02
2017-05-14T02:18:00.824Z,5.30
2017-05-14T02:20:29.106Z,3.66
2017-05-14T02:22:57.976Z,4.42
2017-05-14T02:25:26.252Z,5.38
2017-05-14T02:27:54.532Z,4.76
2017-05-14T02:30:23.101Z,6.36
2017-05-14T02:32:51.381Z,5.82
2017-05-14T02:35:19.662Z,4.50
2017-05-14T02:37:48.258Z,2.84
2017-05-14T02:40:16.745Z,3.22
2017-05-14T02:42:45.020Z,3.58
2017-05-14T02:45:13.548Z,4.48
2017-05-14T02:47:41.974Z,3.16
2017-05-14T02:50:10.284Z,3.54
2017-05-14T02:52:38.938Z,3.68
2017-05-14T02:55:07.239Z,6.14
2017-05-14T02:57:35.533Z,4.44
2017-05-14T03:00:04.144Z,4.02
2017-05-14T03:02:32.437Z,5.88
2017-05-14T03:05:00.751Z,4.18
2017-05-14T03:07:29.413Z,4.04
2017-05-14T03:09:57.894Z,4.42
2017-05-14T03:12:26.189Z,3.46
2017-05-14T03:14:54.756Z,4.16
2017-05-14T03:17:23.044Z,4.90
2017-05-14T03:19:51.332Z,3.88
2017-05-14T03:22:19.848Z,3.82
2017-05-14T03:24:48.128Z,4.32
2017-05-14T03:27:16.417Z,3.96
2017-05-14T03:29:45.078Z,4.18
2017-05-14T03:32:14.092Z,3.78
2017-05-14T03:34:42.569Z,4.14
2017-05-14T03:37:11.175Z,6.34
2017-05-14T03:39:39.660Z,4.32
2017-05-14T03:42:07.937Z,3.80
2017-05-14T03:44:36.739Z,3.12
2017-05-14T03:47:05.118Z,2.60
2017-05-14T03:49:33.472Z,5.36
2017-05-14T03:52:02.154Z,4.80
2017-05-14T03:54:30.534Z,3.10
2017-05-14T03:56:58.807Z,4.14
2017-05-14T03:59:27.510Z,4.08
2017-05-14T04:01:55.799Z,3.40
2017-05-14T04:04:24.269Z,3.38
2017-05-14T04:06:52.841Z,3.10
2017-05-14T04:09:21.116Z,3.32
2017-05-14T04:11:49.509Z,6.02
2017-05-14T04:14:18.197Z,4.42
2017-05-14T04:16:46.672Z,3.78
2017-05-14T04:19:14.956Z,2.70
2017-05-14T04:21:43.464Z,2.70
2017-05-14T04:24:11.752Z,5.86
2017-05-14T04:26:40.036Z,3.80
2017-05-14T04:29:08.667Z,4.06
2017-05-14T04:31:37.152Z,5.16
2017-05-14T04:34:05.495Z,2.50
2017-05-14T04:36:34.011Z,3.02
2017-05-14T04:39:02.385Z,3.14
2017-05-14T04:41:30.662Z,3.60
2017-05-14T04:43:59.339Z,3.80
2017-05-14T04:46:27.875Z,3.06
2017-05-14T04:48:56.149Z,7.02
2017-05-14T04:51:24.791Z,3.00
2017-05-14T04:53:53.271Z,3.10
2017-05-14T04:56:21.560Z,2.38
2017-05-14T04:58:50.124Z,3.14
2017-05-14T05:01:18.426Z,3.82
2017-05-14T05:03:46.888Z,3.42
2017-05-14T05:06:15.498Z,4.18
2017-05-14T05:08:43.858Z,3.32
2017-05-14T05:11:12.330Z,3.80
2017-05-14T05:13:41.019Z,3.54
2017-05-14T05:16:09.512Z,3.76
2017-05-14T05:18:37.863Z,3.54
2017-05-14T05:21:06.465Z,2.58
2017-05-14T05:23:34.751Z,4.16
2017-05-14T05:26:03.215Z,4.00
2017-05-14T05:28:31.900Z,2.62
2017-05-14T05:31:00.190Z,2.40
2017-05-14T05:33:28.471Z,2.76
2017-05-14T05:35:57.152Z,3.20
2017-05-14T05:38:25.442Z,3.12
2017-05-14T05:40:53.772Z,2.34
2017-05-14T05:43:22.368Z,3.32
2017-05-14T05:45:50.666Z,2.24
2017-05-14T05:48:18.944Z,3.90
2017-05-14T05:50:47.528Z,3.58
2017-05-14T05:53:15.810Z,2.50
2017-05-14T05:55:44.155Z,4.20
2017-05-14T05:58:12.848Z,5.08
2017-05-14T06:00:41.121Z,3.22
2017-05-14T06:03:09.616Z,3.34
2017-05-14T06:05:38.305Z,3.06
2017-05-14T06:08:06.646Z,3.54
2017-05-14T06:10:35.254Z,2.78
2017-05-14T06:13:03.759Z,3.74
2017-05-14T06:15:32.219Z,4.06
2017-05-14T06:18:00.513Z,3.28
2017-05-14T06:20:29.084Z,5.68
2017-05-14T06:22:57.365Z,2.72
2017-05-14T06:25:25.752Z,3.28
2017-05-14T06:27:54.417Z,3.90
2017-05-14T06:30:22.706Z,3.64
2017-05-14T06:32:51.064Z,4.58
2017-05-14T06:35:19.628Z,3.96
2017-05-14T06:37:47.930Z,4.00
2017-05-14T06:40:16.297Z,4.22
2017-05-14T06:42:44.937Z,4.46
2017-05-14T06:45:13.376Z,3.06
2017-05-14T06:47:41.677Z,2.92
2017-05-14T06:50:10.351Z,3.80
2017-05-14T06:52:38.642Z,2.30
2017-05-14T06:55:06.976Z,3.70
2017-05-14T06:57:35.575Z,2.78
2017-05-14T07:00:03.872Z,2.26
2017-05-14T07:02:32.207Z,4.50
2017-05-14T07:05:00.815Z,4.62
2017-05-14T07:07:29.100Z,8.28
2017-05-14T07:09:57.380Z,3.20
2017-05-14T07:12:25.997Z,5.24
2017-05-14T07:14:55.141Z,1.96
2017-05-14T07:17:23.436Z,7.38
2017-05-14T07:19:52.083Z,4.44
2017-05-14T07:22:20.356Z,2.40
2017-05-14T07:24:48.687Z,2.60
2017-05-14T07:27:17.353Z,3.24
2017-05-14T07:29:45.707Z,4.36
2017-05-14T07:32:14.002Z,4.02
2017-05-14T07:34:42.386Z,4.28
2017-05-14T07:37:10.676Z,5.38
2017-05-14T07:39:39.355Z,7.38
2017-05-14T07:42:07.727Z,5.20
2017-05-14T07:44:36.112Z,2.60
2017-05-14T07:47:04.798Z,3.22
2017-05-14T07:49:33.110Z,4.22
2017-05-14T07:52:01.420Z,2.70
2017-05-14T07:54:30.041Z,5.68
2017-05-14T07:56:58.331Z,2.42
2017-05-14T07:59:26.619Z,3.68
2017-05-14T08:01:55.261Z,3.50
2017-05-14T08:04:23.625Z,4.24
2017-05-14T08:06:51.911Z,3.30
2017-05-14T08:09:20.516Z,3.20
2017-05-14T08:11:48.811Z,2.64
2017-05-14T08:14:17.169Z,3.56
2017-05-14T08:16:45.767Z,3.66
2017-05-14T08:19:14.066Z,5.70
2017-05-14T08:21:42.575Z,3.90
2017-05-14T08:24:11.188Z,5.46
2017-05-14T08:26:39.476Z,3.28
2017-05-14T08:29:07.765Z,3.86
2017-05-14T08:31:36.417Z,2.74
2017-05-14T08:34:04.742Z,3.44
2017-05-14T08:36:33.063Z,5.58
2017-05-14T08:39:01.581Z,4.18
2017-05-14T08:41:30.628Z,4.70
2017-05-14T08:43:58.925Z,8.22
2017-05-14T08:46:27.490Z,4.74
2017-05-14T08:48:55.778Z,7.76
2017-05-14T08:51:24.107Z,24.28
2017-05-14T08:53:52.738Z,7.14
2017-05-14T08:56:21.238Z,3.82
2017-05-14T08:58:49.595Z,3.60
2017-05-14T09:01:18.191Z,3.32
2017-05-14T09:03:46.499Z,4.38
2017-05-14T09:06:14.819Z,6.14
2017-05-14T09:08:43.429Z,3.32
2017-05-14T09:11:11.903Z,6.42
2017-05-14T09:13:40.198Z,4.58
2017-05-14T09:16:09.694Z,4.86
2017-05-14T09:18:38.173Z,5.24
2017-05-14T09:21:06.481Z,3.32
2017-05-14T09:23:35.136Z,6.88
2017-05-14T09:26:03.428Z,3.42
2017-05-14T09:28:31.724Z,2.80
2017-05-14T09:31:00.370Z,6.44
2017-05-14T09:33:28.851Z,25.46
2017-05-14T09:35:57.141Z,3.12
2017-05-14T09:38:25.805Z,3.10
2017-05-14T09:40:54.097Z,4.96
2017-05-14T09:43:22.385Z,5.92
2017-05-14T09:45:51.247Z,3.80
2017-05-14T09:48:19.534Z,2.78
2017-05-14T09:50:47.831Z,5.36
2017-05-14T09:53:16.491Z,3.50
2017-05-14T09:55:44.785Z,3.40
2017-05-14T09:58:13.096Z,4.90
2017-05-14T10:00:41.722Z,3.24
2017-05-14T10:03:10.009Z,4.06
2017-05-14T10:05:38.327Z,3.32
2017-05-14T10:08:06.940Z,3.92
2017-05-14T10:10:35.237Z,3.08
2017-05-14T10:13:03.534Z,3.62
2017-05-14T10:15:32.215Z,3.96
2017-05-14T10:18:01.083Z,3.12
2017-05-14T10:20:29.374Z,5.54
2017-05-14T10:22:58.253Z,3.44
2017-05-14T10:25:26.570Z,4.14
2017-05-14T10:27:54.854Z,3.40
2017-05-14T10:30:23.497Z,5.08
2017-05-14T10:32:51.935Z,3.42
2017-05-14T10:35:20.272Z,15.68
2017-05-14T10:37:48.949Z,15.80
2017-05-14T10:40:17.242Z,38.80
2017-05-14T10:42:45.698Z,52.12
2017-05-14T10:45:14.401Z,39.42
2017-05-14T10:47:42.719Z,36.52
2017-05-14T10:50:11.035Z,39.58
2017-05-14T10:52:39.830Z,44.58
2017-05-14T10:55:08.311Z,47.80
2017-05-14T10:57:36.610Z,37.18
2017-05-14T11:00:05.266Z,48.22
2017-05-14T11:02:33.567Z,53.40
2017-05-14T11:05:01.881Z,45.28
2017-05-14T11:07:30.518Z,56.30
2017-05-14T11:09:58.812Z,59.98
2017-05-14T11:12:27.135Z,58.24
2017-05-14T11:14:55.755Z,50.70
2017-05-14T11:17:24.071Z,40.66
2017-05-14T11:19:52.377Z,51.06
2017-05-14T11:22:20.996Z,40.24
2017-05-14T11:24:49.293Z,52.26
2017-05-14T11:27:17.610Z,48.06
2017-05-14T11:29:46.205Z,42.82
2017-05-14T11:32:14.702Z,42.54
2017-05-14T11:34:43.006Z,38.20
2017-05-14T11:37:11.657Z,43.76
2017-05-14T11:39:39.984Z,40.28
2017-05-14T11:42:09.131Z,45.20
2017-05-14T11:44:37.952Z,40.60
2017-05-14T11:47:06.264Z,40.08
2017-05-14T11:49:34.677Z,33.52
2017-05-14T11:52:03.577Z,46.94
2017-05-14T11:54:31.881Z,41.00
2017-05-14T11:57:00.217Z,36.66
2017-05-14T11:59:31.656Z,39.76
2017-05-14T12:02:00.268Z,42.58
2017-05-14T12:04:28.562Z,32.66
2017-05-14T12:06:57.164Z,29.64
2017-05-14T12:09:26.320Z,33.88
2017-05-14T12:11:54.640Z,29.48
2017-05-14T12:14:23.477Z,31.84
2017-05-14T12:16:51.797Z,23.46
2017-05-14T12:19:20.142Z,30.96
2017-05-14T12:21:48.805Z,30.72
2017-05-14T12:24:17.135Z,28.84
2017-05-14T12:26:46.173Z,22.70
2017-05-14T12:29:14.794Z,26.26
2017-05-14T12:31:43.301Z,28.62
2017-05-14T12:34:11.661Z,27.44
2017-05-14T12:36:40.250Z,22.56
2017-05-14T12:39:08.590Z,25.80
2017-05-14T12:41:36.914Z,20.64
2017-05-14T12:44:06.223Z,22.24
2017-05-14T12:46:34.515Z,19.06
2017-05-14T12:49:02.810Z,21.56
2017-05-14T12:51:31.396Z,16.80
2017-05-14T12:53:59.698Z,18.58
2017-05-14T12:56:27.998Z,17.56
2017-05-14T12:58:57.470Z,13.22
2017-05-14T13:01:25.826Z,13.52
2017-05-14T13:03:54.130Z,17.76
2017-05-14T13:06:22.738Z,11.78
2017-05-14T13:08:51.773Z,11.02
2017-05-14T13:11:20.087Z,13.34
2017-05-14T13:13:48.674Z,17.72
2017-05-14T13:16:16.993Z,14.40
2017-05-14T13:18:45.293Z,19.82
2017-05-14T13:21:13.907Z,14.06
2017-05-14T13:23:42.200Z,11.92
2017-05-14T13:26:10.508Z,13.62
2017-05-14T13:28:39.134Z,18.54
2017-05-14T13:31:07.446Z,12.80
2017-05-14T13:33:35.748Z,12.16
2017-05-14T13:36:04.348Z,13.84
2017-05-14T13:38:32.632Z,12.32
2017-05-14T13:41:00.919Z,12.80
2017-05-14T13:43:29.622Z,13.96
2017-05-14T13:45:57.911Z,19.62
2017-05-14T13:48:26.213Z,12.50
2017-05-14T13:50:54.852Z,17.46
2017-05-14T13:53:23.148Z,18.90
2017-05-14T13:55:51.434Z,13.12
2017-05-14T13:58:20.107Z,23.64
2017-05-14T14:00:48.571Z,15.84
2017-05-14T14:03:16.874Z,13.36
2017-05-14T14:05:45.498Z,10.10
2017-05-14T14:08:13.810Z,12.16
2017-05-14T14:10:42.106Z,11.72
2017-05-14T14:13:10.778Z,15.12
2017-05-14T14:15:39.087Z,12.90
2017-05-14T14:18:07.528Z,12.20
2017-05-14T14:20:36.071Z,11.02
2017-05-14T14:23:04.365Z,15.50
2017-05-14T14:25:32.778Z,14.30
2017-05-14T14:28:01.330Z,12.44
2017-05-14T14:30:29.649Z,11.64
2017-05-14T14:32:58.674Z,7.94
2017-05-14T14:35:27.301Z,11.00
2017-05-14T14:37:55.611Z,11.42
2017-05-14T14:40:23.938Z,12.30
2017-05-14T14:42:52.598Z,8.02
2017-05-14T14:45:20.891Z,10.92
2017-05-14T14:47:49.309Z,12.74
2017-05-14T14:50:17.983Z,10.88
2017-05-14T14:52:46.273Z,8.10
2017-05-14T14:55:14.612Z,8.14
2017-05-14T14:57:43.217Z,9.54
2017-05-14T15:00:11.511Z,12.44
2017-05-14T15:02:39.829Z,11.72
2017-05-14T15:05:08.471Z,7.82
2017-05-14T15:07:36.822Z,8.78
2017-05-14T15:10:05.210Z,10.66
2017-05-14T15:12:33.735Z,9.84
2017-05-14T15:15:02.016Z,9.52
2017-05-14T15:17:30.481Z,7.50
2017-05-14T15:19:59.149Z,6.62
2017-05-14T15:22:27.449Z,11.36
2017-05-14T15:24:55.744Z,9.36
2017-05-14T15:27:24.394Z,7.24
2017-05-14T15:29:52.681Z,6.44
2017-05-14T15:32:20.971Z,8.76
2017-05-14T15:34:49.615Z,10.82
2017-05-14T15:37:17.987Z,10.18
2017-05-14T15:39:47.090Z,8.38
2017-05-14T15:42:15.731Z,6.68
2017-05-14T15:44:44.048Z,7.10
2017-05-14T15:47:12.348Z,8.44
2017-05-14T15:49:41.722Z,7.04
2017-05-14T15:52:10.219Z,6.50
2017-05-14T15:54:38.708Z,9.74
2017-05-14T15:57:07.369Z,5.42
2017-05-14T15:59:35.669Z,6.76
2017-05-14T16:02:03.969Z,5.32
2017-05-14T16:04:32.634Z,10.12
2017-05-14T16:07:00.915Z,6.58
2017-05-14T16:09:29.218Z,10.72
2017-05-14T16:11:57.850Z,5.58
2017-05-14T16:14:26.162Z,8.16
2017-05-14T16:16:54.467Z,7.62
2017-05-14T16:19:23.044Z,6.96
2017-05-14T16:21:51.353Z,5.14
2017-05-14T16:24:19.650Z,7.76
2017-05-14T16:26:48.327Z,5.58
2017-05-14T16:29:16.706Z,7.46
2017-05-14T16:31:45.095Z,9.26
2017-05-14T16:34:13.714Z,6.54
2017-05-14T16:36:42.015Z,7.42
2017-05-14T16:39:10.351Z,6.06
2017-05-14T16:41:38.995Z,7.76
2017-05-14T16:44:07.367Z,7.20
2017-05-14T16:46:35.651Z,8.50
2017-05-14T16:49:04.251Z,12.42
2017-05-14T16:51:32.727Z,4.68
2017-05-14T16:54:01.040Z,5.90
2017-05-14T16:56:29.700Z,6.30
2017-05-14T16:58:57.985Z,5.52
2017-05-14T17:01:26.294Z,8.48
2017-05-14T17:03:54.914Z,5.50
2017-05-14T17:06:23.208Z,5.36
2017-05-14T17:08:51.502Z,8.54
2017-05-14T17:11:20.074Z,6.66
2017-05-14T17:13:48.452Z,3.84
2017-05-14T17:16:16.908Z,4.28
2017-05-14T17:18:45.471Z,5.68
2017-05-14T17:21:13.785Z,4.70
2017-05-14T17:23:42.169Z,9.10
2017-05-14T17:26:10.785Z,7.16
2017-05-14T17:28:39.821Z,6.48
2017-05-14T17:31:08.122Z,3.84
2017-05-14T17:33:36.703Z,6.28
2017-05-14T17:36:05.147Z,4.80
2017-05-14T17:38:33.434Z,6.64
2017-05-14T17:41:01.966Z,5.88
2017-05-14T17:43:30.278Z,5.44
2017-05-14T17:45:58.745Z,7.72
2017-05-14T17:48:27.374Z,6.44
2017-05-14T17:50:55.664Z,5.54
2017-05-14T17:53:23.964Z,4.10
2017-05-14T17:55:52.605Z,6.92
2017-05-14T17:58:20.917Z,5.86
2017-05-14T18:00:49.391Z,5.16
2017-05-14T18:03:17.909Z,9.82
2017-05-14T18:05:46.214Z,9.26
2017-05-14T18:08:14.614Z,6.84
2017-05-14T18:10:43.135Z,8.72
2017-05-14T18:13:11.430Z,6.66
2017-05-14T18:15:39.749Z,5.04
2017-05-14T18:18:08.325Z,6.42
2017-05-14T18:20:36.734Z,4.50
2017-05-14T18:23:05.790Z,5.54
2017-05-14T18:25:34.389Z,4.66
2017-05-14T18:28:02.693Z,9.10
2017-05-14T18:30:30.996Z,7.76
2017-05-14T18:32:59.624Z,3.82
2017-05-14T18:35:27.916Z,4.62
2017-05-14T18:37:56.235Z,5.34
2017-05-14T18:40:24.850Z,5.60
2017-05-14T18:42:53.728Z,8.06
2017-05-14T18:45:22.029Z,8.14
2017-05-14T18:47:50.709Z,7.42
2017-05-14T18:50:19.030Z,5.48
2017-05-14T18:52:47.325Z,4.28
2017-05-14T18:55:15.999Z,4.84
2017-05-14T18:57:44.333Z,4.00
2017-05-14T19:00:13.534Z,4.08
2017-05-14T19:02:42.214Z,7.12
2017-05-14T19:05:10.517Z,5.04
2017-05-14T19:07:38.814Z,4.80
2017-05-14T19:10:07.447Z,4.96
2017-05-14T19:12:35.745Z,7.32
2017-05-14T19:15:04.087Z,5.64
2017-05-14T19:17:32.696Z,4.76
2017-05-14T19:20:01.018Z,4.50
2017-05-14T19:22:29.335Z,6.12
2017-05-14T19:24:57.929Z,3.58
2017-05-14T19:27:26.225Z,4.10
2017-05-14T19:29:54.546Z,4.48
2017-05-14T19:32:23.161Z,3.12
2017-05-14T19:34:51.658Z,3.94
2017-05-14T19:37:19.961Z,4.20
2017-05-14T19:39:48.500Z,2.76
2017-05-14T19:42:16.800Z,4.90
2017-05-14T19:44:45.913Z,5.28
2017-05-14T19:47:15.246Z,5.00
2017-05-14T19:49:43.554Z,3.82
2017-05-14T19:52:11.912Z,4.48
2017-05-14T19:54:40.519Z,4.04
2017-05-14T19:57:08.815Z,3.46
2017-05-14T19:59:37.102Z,3.66
2017-05-14T20:02:05.759Z,3.16
2017-05-14T20:04:34.219Z,3.66
2017-05-14T20:07:02.509Z,4.16
2017-05-14T20:09:31.185Z,5.28
2017-05-14T20:11:59.600Z,2.74
2017-05-14T20:14:28.626Z,2.76
2017-05-14T20:16:57.238Z,4.02
2017-05-14T20:19:25.596Z,3.94
2017-05-14T20:21:54.025Z,2.56
2017-05-14T20:24:22.698Z,3.04
2017-05-14T20:26:50.999Z,3.24
2017-05-14T20:29:19.286Z,2.44
2017-05-14T20:31:47.822Z,3.24
2017-05-14T20:34:16.203Z,2.94
2017-05-14T20:36:44.504Z,2.66
2017-05-14T20:39:13.199Z,3.46
2017-05-14T20:41:41.499Z,3.76
2017-05-14T20:44:09.824Z,3.52
2017-05-14T20:46:38.598Z,3.60
2017-05-14T20:49:06.890Z,3.08
2017-05-14T20:51:35.186Z,2.58
2017-05-14T20:54:03.849Z,3.10
2017-05-14T20:56:32.157Z,4.00
2017-05-14T20:59:00.612Z,3.02
2017-05-14T21:01:29.290Z,5.80
2017-05-14T21:03:57.585Z,2.32
2017-05-14T21:06:25.890Z,2.76
2017-05-14T21:08:54.515Z,2.62
2017-05-14T21:11:22.864Z,2.34
2017-05-14T21:13:51.285Z,3.36
2017-05-14T21:16:19.841Z,4.76
2017-05-14T21:18:48.129Z,2.28
2017-05-14T21:21:16.414Z,3.50
2017-05-14T21:23:44.994Z,3.72
2017-05-14T21:26:13.298Z,3.00
2017-05-14T21:28:41.584Z,2.04
2017-05-14T21:31:10.241Z,2.72
2017-05-14T21:33:38.530Z,2.82
2017-05-14T21:36:06.834Z,2.94
2017-05-14T21:38:35.471Z,1.96
2017-05-14T21:41:03.769Z,3.00
2017-05-14T21:43:32.056Z,4.04
2017-05-14T21:46:00.708Z,1.80
2017-05-14T21:48:28.995Z,2.80
2017-05-14T21:50:57.296Z,1.88
2017-05-14T21:53:25.867Z,1.60
2017-05-14T21:55:54.151Z,2.34
2017-05-14T21:58:23.320Z,2.02
2017-05-14T22:00:52.009Z,3.54
2017-05-14T22:03:20.413Z,4.52
2017-05-14T22:05:49.443Z,2.22
2017-05-14T22:08:18.273Z,3.28
2017-05-14T22:10:46.558Z,1.64
2017-05-14T22:13:14.840Z,3.10
2017-05-14T22:15:43.356Z,2.90
2017-05-14T22:18:11.768Z,1.70
2017-05-14T22:20:40.049Z,3.64
2017-05-14T22:23:08.753Z,2.12
2017-05-14T22:25:37.057Z,5.58
2017-05-14T22:28:05.388Z,1.90
2017-05-14T22:30:33.971Z,2.08
2017-05-14T22:33:02.459Z,1.70
2017-05-14T22:35:30.748Z,3.62
2017-05-14T22:37:59.414Z,2.32
2017-05-14T22:40:27.711Z,2.28
2017-05-14T22:42:56.182Z,2.52
2017-05-14T22:45:24.763Z,1.70
2017-05-14T22:47:53.045Z,4.48
2017-05-14T22:50:21.442Z,2.50
2017-05-14T22:52:49.940Z,1.84
2017-05-14T22:55:18.240Z,1.60
2017-05-14T22:57:46.533Z,2.10
2017-05-14T23:00:15.240Z,2.62
2017-05-14T23:02:43.623Z,2.26
2017-05-14T23:05:11.910Z,1.68
2017-05-14T23:07:40.570Z,1.70
2017-05-14T23:10:08.929Z,2.46
2017-05-14T23:12:37.207Z,1.62
2017-05-14T23:15:05.732Z,1.88
2017-05-14T23:17:34.032Z,1.60
2017-05-14T23:20:02.319Z,3.02
2017-05-14T23:22:30.893Z,2.44
2017-05-14T23:24:59.193Z,1.80
2017-05-14T23:27:27.479Z,1.60
2017-05-14T23:29:56.079Z,1.66
2017-05-14T23:32:24.374Z,1.46
2017-05-14T23:34:52.666Z,2.44
2017-05-14T23:37:21.169Z,1.52
2017-05-14T23:39:49.443Z,2.24
2017-05-14T23:42:17.720Z,2.42
2017-05-14T23:44:46.370Z,1.74
2017-05-14T23:47:14.880Z,1.70
2017-05-14T23:49:43.160Z,2.58
2017-05-14T23:52:11.790Z,1.40
2017-05-14T23:54:40.073Z,1.38
2017-05-14T23:57:08.545Z,1.74
2017-05-14T23:59:37.141Z,2.32
